sensor_id;sensor_type;location;lat;lon;timestamp;pressure;altitude;pressure_sealevel;temperature;humidity
41945;BME280;63122;52.424;13.458;2023-03-03T00:00:53;101650.53;;;1.98;100.00
41945;BME280;63122;52.424;13.458;2023-03-03T00:02:51;101655.78;;;1.96;100.00
41945;BME280;63122;52.424;13.458;2023-03-03T00:04:43;101652.78;;;1.86;100.00
41945;BME280;63122;52.424;13.458;2023-03-03T00:06:41;101653.78;;;1.84;100.00
41945;BME280;63122;52.424;13.458;2023-03-03T00:08:40;101659.59;;;1.89;100.00
41945;BME280;63122;52.424;13.458;2023-03-03T00:10:37;101654.97;;;1.96;100.00
41945;BME280;63122;52.424;13.458;2023-03-03T00:12:50;101664.94;;;2.05;100.00
41945;BME280;63122;52.424;13.458;2023-03-03T00:14:51;101667.25;;;2.11;100.00
41945;BME280;63122;52.424;13.458;2023-03-03T00:16:48;101677.22;;;2.21;100.00
41945;BME280;63122;52.424;13.458;2023-03-03T00:18:47;101667.47;;;2.26;100.00
41945;BME280;63122;52.424;13.458;2023-03-03T00:20:47;101676.72;;;2.32;100.00
41945;BME280;63122;52.424;13.458;2023-03-03T00:22:43;101672.94;;;2.39;100.00
41945;BME280;63122;52.424;13.458;2023-03-03T00:24:39;101672.94;;;2.39;100.00
41945;BME280;63122;52.424;13.458;2023-03-03T00:26:38;101670.16;;;2.42;100.00
41945;BME280;63122;52.424;13.458;2023-03-03T00:28:44;101673.75;;;2.39;100.00
41945;BME280;63122;52.424;13.458;2023-03-03T00:30:40;101667.31;;;2.47;100.00
41945;BME280;63122;52.424;13.458;2023-03-03T00:32:41;101672.47;;;2.48;100.00
41945;BME280;63122;52.424;13.458;2023-03-03T00:34:41;101666.19;;;2.52;100.00
41945;BME280;63122;52.424;13.458;2023-03-03T00:36:42;101660.97;;;2.52;100.00
41945;BME280;63122;52.424;13.458;2023-03-03T00:38:49;101652.34;;;2.52;100.00
41945;BME280;63122;52.424;13.458;2023-03-03T00:40:47;101645.56;;;2.48;100.00
41945;BME280;63122;52.424;13.458;2023-03-03T00:42:48;101648.94;;;2.50;100.00
41945;BME280;63122;52.424;13.458;2023-03-03T00:44:45;101649.84;;;2.49;100.00
41945;BME280;63122;52.424;13.458;2023-03-03T00:46:42;101645.34;;;2.52;100.00
41945;BME280;63122;52.424;13.458;2023-03-03T00:48:42;101645.50;;;2.49;100.00
41945;BME280;63122;52.424;13.458;2023-03-03T00:50:42;101652.47;;;2.49;100.00
41945;BME280;63122;52.424;13.458;2023-03-03T00:52:40;101653.31;;;2.49;100.00
41945;BME280;63122;52.424;13.458;2023-03-03T00:54:35;101647.41;;;2.45;100.00
41945;BME280;63122;52.424;13.458;2023-03-03T00:56:32;101641.38;;;2.45;100.00
41945;BME280;63122;52.424;13.458;2023-03-03T00:58:27;101630.94;;;2.45;100.00
41945;BME280;63122;52.424;13.458;2023-03-03T01:00:23;101636.00;;;2.48;100.00
41945;BME280;63122;52.424;13.458;2023-03-03T01:02:16;101637.44;;;2.36;100.00
41945;BME280;63122;52.424;13.458;2023-03-03T01:04:12;101635.81;;;2.34;100.00
41945;BME280;63122;52.424;13.458;2023-03-03T01:06:10;101638.72;;;2.27;100.00
41945;BME280;63122;52.424;13.458;2023-03-03T01:08:06;101629.78;;;2.33;100.00
41945;BME280;63122;52.424;13.458;2023-03-03T01:10:03;101635.66;;;2.37;100.00
41945;BME280;63122;52.424;13.458;2023-03-03T01:12:01;101632.38;;;2.33;100.00
41945;BME280;63122;52.424;13.458;2023-03-03T01:13:56;101638.28;;;2.37;100.00
41945;BME280;63122;52.424;13.458;2023-03-03T01:15:52;101632.22;;;2.36;100.00
41945;BME280;63122;52.424;13.458;2023-03-03T01:17:49;101623.44;;;2.39;100.00
41945;BME280;63122;52.424;13.458;2023-03-03T01:19:45;101629.69;;;2.35;100.00
41945;BME280;63122;52.424;13.458;2023-03-03T01:21:43;101627.03;;;2.36;100.00
41945;BME280;63122;52.424;13.458;2023-03-03T01:23:39;101633.47;;;2.29;100.00
41945;BME280;63122;52.424;13.458;2023-03-03T01:25:35;101633.47;;;2.29;100.00
41945;BME280;63122;52.424;13.458;2023-03-03T01:27:31;101626.56;;;2.28;100.00
41945;BME280;63122;52.424;13.458;2023-03-03T01:29:27;101616.97;;;2.28;100.00
41945;BME280;63122;52.424;13.458;2023-03-03T01:31:23;101618.59;;;2.31;100.00
41945;BME280;63122;52.424;13.458;2023-03-03T01:33:18;101618.09;;;2.23;100.00
41945;BME280;63122;52.424;13.458;2023-03-03T01:35:14;101624.78;;;2.11;100.00
41945;BME280;63122;52.424;13.458;2023-03-03T01:37:12;101625.53;;;1.94;100.00
41945;BME280;63122;52.424;13.458;2023-03-03T01:39:09;101618.78;;;1.90;100.00
41945;BME280;63122;52.424;13.458;2023-03-03T01:41:05;101612.31;;;1.98;100.00
41945;BME280;63122;52.424;13.458;2023-03-03T01:43:00;101609.72;;;1.98;100.00
41945;BME280;63122;52.424;13.458;2023-03-03T01:45:10;101596.84;;;1.95;100.00
41945;BME280;63122;52.424;13.458;2023-03-03T01:47:12;101596.22;;;1.90;100.00
41945;BME280;63122;52.424;13.458;2023-03-03T01:49:12;101597.16;;;1.89;100.00
41945;BME280;63122;52.424;13.458;2023-03-03T01:51:13;101599.81;;;1.87;100.00
41945;BME280;63122;52.424;13.458;2023-03-03T01:53:17;101605.25;;;1.83;100.00
41945;BME280;63122;52.424;13.458;2023-03-03T01:55:19;101601.00;;;1.80;100.00
41945;BME280;63122;52.424;13.458;2023-03-03T01:57:21;101597.69;;;1.77;100.00
41945;BME280;63122;52.424;13.458;2023-03-03T01:59:21;101601.16;;;1.77;100.00
41945;BME280;63122;52.424;13.458;2023-03-03T02:01:20;101604.53;;;1.79;100.00
41945;BME280;63122;52.424;13.458;2023-03-03T02:03:17;101593.56;;;1.72;100.00
41945;BME280;63122;52.424;13.458;2023-03-03T02:05:14;101603.66;;;1.79;100.00
41945;BME280;63122;52.424;13.458;2023-03-03T02:07:11;101605.44;;;1.78;100.00
41945;BME280;63122;52.424;13.458;2023-03-03T02:09:14;101599.81;;;1.68;100.00
41945;BME280;63122;52.424;13.458;2023-03-03T02:11:11;101591.69;;;1.57;100.00
41945;BME280;63122;52.424;13.458;2023-03-03T02:13:07;101590.97;;;1.53;100.00
41945;BME280;63122;52.424;13.458;2023-03-03T02:15:15;101590.06;;;1.54;100.00
41945;BME280;63122;52.424;13.458;2023-03-03T02:17:11;101594.44;;;1.54;100.00
41945;BME280;63122;52.424;13.458;2023-03-03T02:19:12;101604.03;;;1.52;100.00
41945;BME280;63122;52.424;13.458;2023-03-03T02:21:14;101602.00;;;1.58;100.00
41945;BME280;63122;52.424;13.458;2023-03-03T02:23:16;101607.44;;;1.54;100.00
41945;BME280;63122;52.424;13.458;2023-03-03T02:25:20;101616.00;;;1.56;100.00
41945;BME280;63122;52.424;13.458;2023-03-03T02:27:22;101608.13;;;1.57;100.00
41945;BME280;63122;52.424;13.458;2023-03-03T02:29:17;101603.91;;;1.55;100.00
41945;BME280;63122;52.424;13.458;2023-03-03T02:31:15;101605.16;;;1.46;100.00
41945;BME280;63122;52.424;13.458;2023-03-03T02:33:11;101608.88;;;1.40;100.00
41945;BME280;63122;52.424;13.458;2023-03-03T02:35:24;101613.25;;;1.40;100.00
41945;BME280;63122;52.424;13.458;2023-03-03T02:37:21;101613.03;;;1.44;100.00
41945;BME280;63122;52.424;13.458;2023-03-03T02:39:18;101620.91;;;1.43;100.00
41945;BME280;63122;52.424;13.458;2023-03-03T02:41:18;101616.47;;;1.45;100.00
41945;BME280;63122;52.424;13.458;2023-03-03T02:43:20;101622.59;;;1.44;100.00
41945;BME280;63122;52.424;13.458;2023-03-03T02:45:16;101622.84;;;1.38;100.00
41945;BME280;63122;52.424;13.458;2023-03-03T02:47:12;101608.94;;;1.39;100.00
41945;BME280;63122;52.424;13.458;2023-03-03T02:49:09;101604.94;;;1.32;100.00
41945;BME280;63122;52.424;13.458;2023-03-03T02:51:05;101607.66;;;1.28;100.00
41945;BME280;63122;52.424;13.458;2023-03-03T02:53:00;101609.16;;;1.34;100.00
41945;BME280;63122;52.424;13.458;2023-03-03T02:54:55;101612.25;;;1.42;100.00
41945;BME280;63122;52.424;13.458;2023-03-03T02:56:50;101613.03;;;1.44;100.00
41945;BME280;63122;52.424;13.458;2023-03-03T02:58:48;101615.84;;;1.40;100.00
41945;BME280;63122;52.424;13.458;2023-03-03T03:00:43;101610.00;;;1.35;100.00
41945;BME280;63122;52.424;13.458;2023-03-03T03:02:39;101612.53;;;1.36;100.00
41945;BME280;63122;52.424;13.458;2023-03-03T03:04:34;101607.25;;;1.38;100.00
41945;BME280;63122;52.424;13.458;2023-03-03T03:06:30;101606.25;;;1.21;100.00
41945;BME280;63122;52.424;13.458;2023-03-03T03:08:25;101608.13;;;1.18;100.00
41945;BME280;63122;52.424;13.458;2023-03-03T03:10:20;101606.25;;;1.21;100.00
41945;BME280;63122;52.424;13.458;2023-03-03T03:12:15;101614.97;;;1.20;100.00
41945;BME280;63122;52.424;13.458;2023-03-03T03:14:14;101619.16;;;1.23;100.00
41945;BME280;63122;52.424;13.458;2023-03-03T03:16:10;101627.81;;;1.23;100.00
41945;BME280;63122;52.424;13.458;2023-03-03T03:18:05;101620.22;;;1.19;100.00
41945;BME280;63122;52.424;13.458;2023-03-03T03:20:00;101617.06;;;1.12;100.00
41945;BME280;63122;52.424;13.458;2023-03-03T03:21:55;101623.69;;;1.19;100.00
41945;BME280;63122;52.424;13.458;2023-03-03T03:23:50;101624.66;;;1.17;100.00
41945;BME280;63122;52.424;13.458;2023-03-03T03:25:48;101624.78;;;1.13;100.00
41945;BME280;63122;52.424;13.458;2023-03-03T03:27:46;101634.53;;;1.08;100.00
41945;BME280;63122;52.424;13.458;2023-03-03T03:29:43;101640.66;;;1.07;100.00
41945;BME280;63122;52.424;13.458;2023-03-03T03:31:39;101645.56;;;1.13;100.00
41945;BME280;63122;52.424;13.458;2023-03-03T03:33:35;101636.69;;;1.19;100.00
41945;BME280;63122;52.424;13.458;2023-03-03T03:35:31;101636.94;;;1.13;100.00
41945;BME280;63122;52.424;13.458;2023-03-03T03:37:27;101631.03;;;1.09;100.00
41945;BME280;63122;52.424;13.458;2023-03-03T03:39:22;101637.06;;;1.10;100.00
41945;BME280;63122;52.424;13.458;2023-03-03T03:41:17;101631.75;;;1.13;100.00
41945;BME280;63122;52.424;13.458;2023-03-03T03:43:13;101639.47;;;1.14;100.00
41945;BME280;63122;52.424;13.458;2023-03-03T03:45:12;101643.06;;;1.12;100.00
41945;BME280;63122;52.424;13.458;2023-03-03T03:47:09;101643.84;;;1.14;100.00
41945;BME280;63122;52.424;13.458;2023-03-03T03:49:03;101642.94;;;1.15;100.00
41945;BME280;63122;52.424;13.458;2023-03-03T03:50:59;101642.16;;;1.13;100.00
41945;BME280;63122;52.424;13.458;2023-03-03T03:52:54;101632.53;;;1.15;100.00
41945;BME280;63122;52.424;13.458;2023-03-03T03:54:49;101632.84;;;1.07;100.00
41945;BME280;63122;52.424;13.458;2023-03-03T03:56:44;101627.78;;;1.04;100.00
41945;BME280;63122;52.424;13.458;2023-03-03T03:58:40;101626.94;;;1.04;100.00
41945;BME280;63122;52.424;13.458;2023-03-03T04:00:39;101624.66;;;0.96;100.00
41945;BME280;63122;52.424;13.458;2023-03-03T04:02:35;101629.06;;;0.94;100.00
41945;BME280;63122;52.424;13.458;2023-03-03T04:04:30;101619.66;;;0.91;100.00
41945;BME280;63122;52.424;13.458;2023-03-03T04:06:26;101622.41;;;0.88;100.00
41945;BME280;63122;52.424;13.458;2023-03-03T04:08:21;101606.09;;;0.84;100.00
41945;BME280;63122;52.424;13.458;2023-03-03T04:10:16;101606.50;;;0.75;100.00
41945;BME280;63122;52.424;13.458;2023-03-03T04:12:11;101611.69;;;0.75;100.00
41945;BME280;63122;52.424;13.458;2023-03-03T04:14:06;101614.16;;;0.78;100.00
41945;BME280;63122;52.424;13.458;2023-03-03T04:16:04;101621.75;;;0.62;100.00
41945;BME280;63122;52.424;13.458;2023-03-03T04:18:00;101612.50;;;0.55;100.00
41945;BME280;63122;52.424;13.458;2023-03-03T04:19:55;101607.84;;;0.41;100.00
41945;BME280;63122;52.424;13.458;2023-03-03T04:21:50;101605.16;;;0.44;100.00
41945;BME280;63122;52.424;13.458;2023-03-03T04:23:45;101610.53;;;0.39;100.00
41945;BME280;63122;52.424;13.458;2023-03-03T04:25:41;101609.09;;;0.32;100.00
41945;BME280;63122;52.424;13.458;2023-03-03T04:27:36;101613.31;;;0.35;100.00
41945;BME280;63122;52.424;13.458;2023-03-03T04:29:31;101617.53;;;0.37;100.00
41945;BME280;63122;52.424;13.458;2023-03-03T04:31:29;101608.19;;;0.33;100.00
41945;BME280;63122;52.424;13.458;2023-03-03T04:33:28;101609.22;;;0.29;100.00
41945;BME280;63122;52.424;13.458;2023-03-03T04:35:23;101609.09;;;0.32;100.00
41945;BME280;63122;52.424;13.458;2023-03-03T04:37:18;101619.28;;;0.37;100.00
41945;BME280;63122;52.424;13.458;2023-03-03T04:39:13;101608.41;;;0.27;100.00
41945;BME280;63122;52.424;13.458;2023-03-03T04:41:09;101608.97;;;0.13;100.00
41945;BME280;63122;52.424;13.458;2023-03-03T04:43:04;101604.75;;;0.10;100.00
41945;BME280;63122;52.424;13.458;2023-03-03T04:44:59;101605.19;;;-0.01;100.00
41945;BME280;63122;52.424;13.458;2023-03-03T04:46:56;101608.19;;;0.11;100.00
41945;BME280;63122;52.424;13.458;2023-03-03T04:48:52;101604.59;;;0.15;100.00
41945;BME280;63122;52.424;13.458;2023-03-03T04:50:47;101600.47;;;0.09;100.00
41945;BME280;63122;52.424;13.458;2023-03-03T04:52:43;101604.47;;;0.18;100.00
41945;BME280;63122;52.424;13.458;2023-03-03T04:54:38;101613.69;;;0.03;100.00
41945;BME280;63122;52.424;13.458;2023-03-03T04:56:33;101625.06;;;-0.01;100.00
41945;BME280;63122;52.424;13.458;2023-03-03T04:58:28;101616.28;;;0.03;100.00
41945;BME280;63122;52.424;13.458;2023-03-03T05:00:23;101620.44;;;0.07;100.00
41945;BME280;63122;52.424;13.458;2023-03-03T05:02:21;101613.38;;;0.11;100.00
41945;BME280;63122;52.424;13.458;2023-03-03T05:04:17;101618.03;;;0.03;100.00
41945;BME280;63122;52.424;13.458;2023-03-03T05:06:12;101619.09;;;-0.03;100.00
41945;BME280;63122;52.424;13.458;2023-03-03T05:08:09;101622.44;;;0.01;100.00
41945;BME280;63122;52.424;13.458;2023-03-03T05:10:06;101615.72;;;-0.05;100.00
41945;BME280;63122;52.424;13.458;2023-03-03T05:12:02;101609.50;;;-0.23;100.00
41945;BME280;63122;52.424;13.458;2023-03-03T05:13:57;101609.47;;;-0.46;100.00
41945;BME280;63122;52.424;13.458;2023-03-03T05:15:55;101599.50;;;-0.56;100.00
41945;BME280;63122;52.424;13.458;2023-03-03T05:17:52;101602.81;;;-0.53;100.00
41945;BME280;63122;52.424;13.458;2023-03-03T05:19:48;101605.19;;;-0.47;100.00
41945;BME280;63122;52.424;13.458;2023-03-03T05:21:42;101608.28;;;-0.37;100.00
41945;BME280;63122;52.424;13.458;2023-03-03T05:23:38;101612.22;;;-0.26;100.00
41945;BME280;63122;52.424;13.458;2023-03-03T05:25:33;101616.38;;;-0.22;100.00
41945;BME280;63122;52.424;13.458;2023-03-03T05:27:29;101612.25;;;-0.28;100.00
41945;BME280;63122;52.424;13.458;2023-03-03T05:29:24;101609.78;;;-0.31;100.00
41945;BME280;63122;52.424;13.458;2023-03-03T05:31:19;101609.00;;;-0.33;100.00
41945;BME280;63122;52.424;13.458;2023-03-03T05:33:18;101609.00;;;-0.33;100.00
41945;BME280;63122;52.424;13.458;2023-03-03T05:35:13;101612.03;;;-0.22;100.00
41945;BME280;63122;52.424;13.458;2023-03-03T05:37:08;101609.66;;;-0.28;100.00
41945;BME280;63122;52.424;13.458;2023-03-03T05:39:04;101615.88;;;-0.32;100.00
41945;BME280;63122;52.424;13.458;2023-03-03T05:40:59;101622.63;;;-0.28;100.00
41945;BME280;63122;52.424;13.458;2023-03-03T05:42:54;101617.44;;;-0.28;100.00
41945;BME280;63122;52.424;13.458;2023-03-03T05:44:49;101618.31;;;-0.27;100.00
41945;BME280;63122;52.424;13.458;2023-03-03T05:46:45;101621.06;;;-0.32;100.00
41945;BME280;63122;52.424;13.458;2023-03-03T05:48:42;101622.75;;;-0.31;100.00
41945;BME280;63122;52.424;13.458;2023-03-03T05:50:38;101627.16;;;-0.33;100.00
41945;BME280;63122;52.424;13.458;2023-03-03T05:52:33;101631.38;;;-0.31;100.00
41945;BME280;63122;52.424;13.458;2023-03-03T05:54:28;101638.13;;;-0.26;100.00
41945;BME280;63122;52.424;13.458;2023-03-03T05:56:23;101648.28;;;-0.20;100.00
41945;BME280;63122;52.424;13.458;2023-03-03T05:58:18;101641.91;;;-0.11;100.00
41945;BME280;63122;52.424;13.458;2023-03-03T06:00:15;101637.56;;;-0.11;100.00
41945;BME280;63122;52.424;13.458;2023-03-03T06:02:11;101631.59;;;-0.13;100.00
41945;BME280;63122;52.424;13.458;2023-03-03T06:04:08;101637.88;;;-0.19;100.00
41945;BME280;63122;52.424;13.458;2023-03-03T06:06:04;101631.03;;;-0.21;100.00
41945;BME280;63122;52.424;13.458;2023-03-03T06:08:00;101639.19;;;-0.08;100.00
41945;BME280;63122;52.424;13.458;2023-03-03T06:09:55;101642.06;;;-0.16;100.00
41945;BME280;63122;52.424;13.458;2023-03-03T06:11:50;101642.25;;;-0.21;100.00
41945;BME280;63122;52.424;13.458;2023-03-03T06:13:45;101633.69;;;-0.23;100.00
41945;BME280;63122;52.424;13.458;2023-03-03T06:15:40;101637.06;;;-0.21;100.00
41945;BME280;63122;52.424;13.458;2023-03-03T06:17:36;101640.78;;;-0.28;100.00
41945;BME280;63122;52.424;13.458;2023-03-03T06:19:35;101638.88;;;-0.23;100.00
41945;BME280;63122;52.424;13.458;2023-03-03T06:21:32;101639.47;;;-0.16;100.00
41945;BME280;63122;52.424;13.458;2023-03-03T06:23:27;101641.88;;;-0.34;100.00
41945;BME280;63122;52.424;13.458;2023-03-03T06:25:23;101649.19;;;-0.45;100.00
41945;BME280;63122;52.424;13.458;2023-03-03T06:27:18;101656.41;;;-0.53;100.00
41945;BME280;63122;52.424;13.458;2023-03-03T06:29:13;101654.25;;;-0.42;100.00
41945;BME280;63122;52.424;13.458;2023-03-03T06:31:09;101653.16;;;-0.35;100.00
41945;BME280;63122;52.424;13.458;2023-03-03T06:33:04;101654.22;;;-0.40;100.00
41945;BME280;63122;52.424;13.458;2023-03-03T06:35:02;101657.44;;;-0.34;100.00
41945;BME280;63122;52.424;13.458;2023-03-03T06:36:58;101658.50;;;-0.39;100.00
41945;BME280;63122;52.424;13.458;2023-03-03T06:38:53;101661.72;;;-0.33;100.00
41945;BME280;63122;52.424;13.458;2023-03-03T06:40:49;101673.53;;;-0.25;100.00
41945;BME280;63122;52.424;13.458;2023-03-03T06:42:44;101656.19;;;-0.23;100.00
41945;BME280;63122;52.424;13.458;2023-03-03T06:44:40;101658.53;;;-0.17;100.00
41945;BME280;63122;52.424;13.458;2023-03-03T06:46:35;101661.75;;;-0.10;100.00
41945;BME280;63122;52.424;13.458;2023-03-03T06:48:31;101656.56;;;-0.10;100.00
41945;BME280;63122;52.424;13.458;2023-03-03T06:50:29;101659.91;;;-0.07;100.00
41945;BME280;63122;52.424;13.458;2023-03-03T06:52:26;101659.31;;;-0.15;100.00
41945;BME280;63122;52.424;13.458;2023-03-03T06:54:27;101667.63;;;-0.29;100.00
41945;BME280;63122;52.424;13.458;2023-03-03T06:56:23;101668.19;;;-0.21;100.00
41945;BME280;63122;52.424;13.458;2023-03-03T06:58:20;101683.41;;;-0.35;100.00
41945;BME280;63122;52.424;13.458;2023-03-03T07:00:18;101685.25;;;-0.63;100.00
41945;BME280;63122;52.424;13.458;2023-03-03T07:02:16;101687.25;;;-0.71;100.00
41945;BME280;63122;52.424;13.458;2023-03-03T07:04:25;101698.31;;;-0.66;100.00
41945;BME280;63122;52.424;13.458;2023-03-03T07:06:25;101698.34;;;-0.67;100.00
41945;BME280;63122;52.424;13.458;2023-03-03T07:08:22;101708.94;;;-0.74;100.00
41945;BME280;63122;52.424;13.458;2023-03-03T07:10:22;101707.41;;;-0.79;100.00
41945;BME280;63122;52.424;13.458;2023-03-03T07:12:19;101699.38;;;-0.97;100.00
41945;BME280;63122;52.424;13.458;2023-03-03T07:14:17;101701.25;;;-1.02;100.00
41945;BME280;63122;52.424;13.458;2023-03-03T07:16:15;101708.75;;;-0.94;100.00
41945;BME280;63122;52.424;13.458;2023-03-03T07:18:22;101703.38;;;-0.88;100.00
41945;BME280;63122;52.424;13.458;2023-03-03T07:20:23;101696.22;;;-0.80;100.00
41945;BME280;63122;52.424;13.458;2023-03-03T07:22:23;101702.00;;;-0.73;100.00
41945;BME280;63122;52.424;13.458;2023-03-03T07:24:25;101697.41;;;-0.65;100.00
41945;BME280;63122;52.424;13.458;2023-03-03T07:26:24;101699.25;;;-0.68;100.00
41945;BME280;63122;52.424;13.458;2023-03-03T07:28:23;101698.09;;;-0.60;100.00
41945;BME280;63122;52.424;13.458;2023-03-03T07:30:23;101697.94;;;-0.55;100.00
41945;BME280;63122;52.424;13.458;2023-03-03T07:32:32;101704.81;;;-0.54;100.00
41945;BME280;63122;52.424;13.458;2023-03-03T07:34:35;101709.69;;;-0.45;100.00
41945;BME280;63122;52.424;13.458;2023-03-03T07:36:35;101706.94;;;-0.40;100.00
41945;BME280;63122;52.424;13.458;2023-03-03T07:38:34;101713.31;;;-0.50;100.00
41945;BME280;63122;52.424;13.458;2023-03-03T07:40:36;101715.34;;;-0.59;100.00
41945;BME280;63122;52.424;13.458;2023-03-03T07:42:36;101713.75;;;-0.63;100.00
41945;BME280;63122;52.424;13.458;2023-03-03T07:44:35;101715.44;;;-0.62;100.00
41945;BME280;63122;52.424;13.458;2023-03-03T07:46:36;101719.47;;;-0.53;100.00
41945;BME280;63122;52.424;13.458;2023-03-03T07:48:36;101722.06;;;-0.53;100.00
41945;BME280;63122;52.424;13.458;2023-03-03T07:50:33;101719.53;;;-0.54;100.00
41945;BME280;63122;52.424;13.458;2023-03-03T07:52:34;101713.31;;;-0.50;100.00
41945;BME280;63122;52.424;13.458;2023-03-03T07:54:37;101721.06;;;-0.49;100.00
41945;BME280;63122;52.424;13.458;2023-03-03T07:56:34;101721.47;;;-0.61;100.00
41945;BME280;63122;52.424;13.458;2023-03-03T07:58:35;101727.25;;;-0.53;100.00
41945;BME280;63122;52.424;13.458;2023-03-03T08:03:09;101732.47;;;-0.54;100.00
41945;BME280;63122;52.424;13.458;2023-03-03T08:05:30;101729.78;;;-0.51;100.00
41945;BME280;63122;52.424;13.458;2023-03-03T08:07:29;101719.16;;;-0.44;100.00
41945;BME280;63122;52.424;13.458;2023-03-03T08:09:45;101724.44;;;-0.47;100.00
41945;BME280;63122;52.424;13.458;2023-03-03T08:11:48;101731.91;;;-0.63;100.00
41945;BME280;63122;52.424;13.458;2023-03-03T08:13:44;101727.19;;;-0.51;100.00
41945;BME280;63122;52.424;13.458;2023-03-03T08:15:39;101717.50;;;-0.46;100.00
41945;BME280;63122;52.424;13.458;2023-03-03T08:17:35;101724.25;;;-0.42;100.00
41945;BME280;63122;52.424;13.458;2023-03-03T08:19:33;101723.38;;;-0.41;100.00
41945;BME280;63122;52.424;13.458;2023-03-03T08:21:28;101723.22;;;-0.36;100.00
41945;BME280;63122;52.424;13.458;2023-03-03T08:23:23;101718.44;;;-0.23;100.00
41945;BME280;63122;52.424;13.458;2023-03-03T08:25:21;101713.13;;;-0.20;100.00
41945;BME280;63122;52.424;13.458;2023-03-03T08:27:16;101717.72;;;-0.27;100.00
41945;BME280;63122;52.424;13.458;2023-03-03T08:29:11;101724.66;;;-0.29;100.00
41945;BME280;63122;52.424;13.458;2023-03-03T08:31:06;101711.66;;;-0.27;100.00
41945;BME280;63122;52.424;13.458;2023-03-03T08:33:14;101711.88;;;-0.34;100.00
41945;BME280;63122;52.424;13.458;2023-03-03T08:35:09;101719.78;;;-0.37;100.00
41945;BME280;63122;52.424;13.458;2023-03-03T08:37:05;101725.69;;;-0.33;100.00
41945;BME280;63122;52.424;13.458;2023-03-03T08:39:00;101721.47;;;-0.36;100.00
41945;BME280;63122;52.424;13.458;2023-03-03T08:40:58;101720.72;;;-0.39;100.00
41945;BME280;63122;52.424;13.458;2023-03-03T08:42:53;101724.91;;;-0.35;100.00
41945;BME280;63122;52.424;13.458;2023-03-03T08:44:58;101722.16;;;-0.31;100.00
41945;BME280;63122;52.424;13.458;2023-03-03T08:46:53;101731.28;;;-0.20;100.00
41945;BME280;63122;52.424;13.458;2023-03-03T08:48:48;101728.75;;;-0.22;100.00
41945;BME280;63122;52.424;13.458;2023-03-03T08:50:45;101726.28;;;-0.25;100.00
41945;BME280;63122;52.424;13.458;2023-03-03T08:52:42;101730.59;;;-0.25;100.00
41945;BME280;63122;52.424;13.458;2023-03-03T08:54:37;101734.78;;;-0.21;100.00
41945;BME280;63122;52.424;13.458;2023-03-03T08:56:35;101733.28;;;-0.27;100.00
41945;BME280;63122;52.424;13.458;2023-03-03T08:58:31;101735.38;;;-0.38;100.00
41945;BME280;63122;52.424;13.458;2023-03-03T09:00:28;101739.63;;;-0.36;100.00
41945;BME280;63122;52.424;13.458;2023-03-03T09:02:23;101736.03;;;-0.32;100.00
41945;BME280;63122;52.424;13.458;2023-03-03T09:04:19;101734.88;;;-0.24;100.00
41945;BME280;63122;52.424;13.458;2023-03-03T09:06:15;101737.38;;;-0.21;100.00
41945;BME280;63122;52.424;13.458;2023-03-03T09:08:10;101736.34;;;-0.17;100.00
41945;BME280;63122;52.424;13.458;2023-03-03T09:10:07;101729.81;;;-0.27;100.00
41945;BME280;63122;52.424;13.458;2023-03-03T09:12:14;101724.63;;;-0.27;100.00
41945;BME280;63122;52.424;13.458;2023-03-03T09:14:12;101721.34;;;-0.33;100.00
41945;BME280;63122;52.424;13.458;2023-03-03T09:16:12;101720.03;;;-0.45;100.00
41945;BME280;63122;52.424;13.458;2023-03-03T09:18:15;101729.66;;;-0.48;100.00
41945;BME280;63122;52.424;13.458;2023-03-03T09:20:22;101729.66;;;-0.48;100.00
41945;BME280;63122;52.424;13.458;2023-03-03T09:22:19;101723.94;;;-0.33;100.00
41945;BME280;63122;52.424;13.458;2023-03-03T09:24:22;101720.38;;;-0.30;100.00
41945;BME280;63122;52.424;13.458;2023-03-03T09:26:26;101715.84;;;-0.23;100.00
41945;BME280;63122;52.424;13.458;2023-03-03T09:28:27;101724.88;;;-0.10;100.00
41945;BME280;63122;52.424;13.458;2023-03-03T09:30:35;101718.66;;;-0.06;100.00
41945;BME280;63122;52.424;13.458;2023-03-03T09:32:33;101723.66;;;-0.01;100.00
41945;BME280;63122;52.424;13.458;2023-03-03T09:34:37;101720.34;;;-0.05;100.00
41945;BME280;63122;52.424;13.458;2023-03-03T09:36:36;101714.38;;;-0.07;100.00
41945;BME280;63122;52.424;13.458;2023-03-03T09:38:32;101724.75;;;-0.07;100.00
41945;BME280;63122;52.424;13.458;2023-03-03T09:40:50;101722.28;;;-0.10;100.00
41945;BME280;63122;52.424;13.458;2023-03-03T09:42:59;101725.31;;;-0.22;100.00
41945;BME280;63122;52.424;13.458;2023-03-03T09:45:22;101719.47;;;-0.29;100.00
41945;BME280;63122;52.424;13.458;2023-03-03T09:47:39;101729.53;;;-0.20;100.00
41945;BME280;63122;52.424;13.458;2023-03-03T09:49:43;101729.59;;;-0.21;100.00
41945;BME280;63122;52.424;13.458;2023-03-03T09:51:55;101726.94;;;-0.20;100.00
41945;BME280;63122;52.424;13.458;2023-03-03T09:54:03;101725.72;;;-0.09;100.00
41945;BME280;63122;52.424;13.458;2023-03-03T09:56:06;101733.16;;;0.00;100.00
41945;BME280;63122;52.424;13.458;2023-03-03T09:58:15;101738.63;;;0.16;100.00
41945;BME280;63122;52.424;13.458;2023-03-03T10:00:33;101725.59;;;0.18;100.00
41945;BME280;63122;52.424;13.458;2023-03-03T10:02:39;101719.25;;;0.25;100.00
41945;BME280;63122;52.424;13.458;2023-03-03T10:05:08;101720.22;;;0.22;100.00
41945;BME280;63122;52.424;13.458;2023-03-03T10:07:18;101719.94;;;0.30;100.00
41945;BME280;63122;52.424;13.458;2023-03-03T10:09:36;101726.59;;;0.37;100.00